Terminal Aerodrome Forecast
Issued by NWS Charleston, WV

Current Version | Previous Version | Text Only | Print | Product List | Glossary Off
Versions: 1 2 3 4 5 6 7 8 9 10 11 12 13 14 15 16 17 18 19 20 21 22 23 24 25

000
FTUS41 KRLX 211700
TAFHTS
TAF
KHTS 211739Z 2118/2218 22010KT P6SM SCT026 SCT030 BKN090
      TEMPO 2119/2121 3SM SHRA BKN025
     FM212100 27013G24KT P6SM BKN035
     FM212200 28011G21KT P6SM BKN025
     FM220200 31008KT P6SM SCT025
     FM220600 31006KT P6SM BKN025
     FM221600 32005KT P6SM SCT035=

USA.gov is the U.S. government's official web portal to all federal, state and local government web resources and services.